sensor_id;sensor_type;location;lat;lon;timestamp;temperature;humidity
15103;DHT22;7652;53.584;9.998;2023-06-26T00:02:29;22.40;99.90
15103;DHT22;7652;53.584;9.998;2023-06-26T00:05:53;22.40;99.90
15103;DHT22;7652;53.584;9.998;2023-06-26T00:09:15;22.40;99.90
15103;DHT22;7652;53.584;9.998;2023-06-26T00:12:37;22.30;99.90
15103;DHT22;7652;53.584;9.998;2023-06-26T00:15:58;22.30;99.90
15103;DHT22;7652;53.584;9.998;2023-06-26T00:19:23;22.30;99.90
15103;DHT22;7652;53.584;9.998;2023-06-26T00:22:44;22.30;99.90
15103;DHT22;7652;53.584;9.998;2023-06-26T00:26:07;22.20;99.90
15103;DHT22;7652;53.584;9.998;2023-06-26T00:29:29;22.20;99.90
15103;DHT22;7652;53.584;9.998;2023-06-26T00:32:51;22.20;99.90
15103;DHT22;7652;53.584;9.998;2023-06-26T00:36:12;22.20;99.90
15103;DHT22;7652;53.584;9.998;2023-06-26T00:39:34;22.20;99.90
15103;DHT22;7652;53.584;9.998;2023-06-26T00:42:57;22.20;99.90
15103;DHT22;7652;53.584;9.998;2023-06-26T00:46:18;22.20;99.90
15103;DHT22;7652;53.584;9.998;2023-06-26T00:49:40;22.20;99.90
15103;DHT22;7652;53.584;9.998;2023-06-26T00:53:01;22.20;99.90
15103;DHT22;7652;53.584;9.998;2023-06-26T00:56:23;22.10;99.90
15103;DHT22;7652;53.584;9.998;2023-06-26T00:59:46;22.10;99.90
15103;DHT22;7652;53.584;9.998;2023-06-26T01:03:07;22.10;99.90
15103;DHT22;7652;53.584;9.998;2023-06-26T01:06:30;22.10;99.90
15103;DHT22;7652;53.584;9.998;2023-06-26T01:09:55;22.00;99.90
15103;DHT22;7652;53.584;9.998;2023-06-26T01:13:17;22.00;99.90
15103;DHT22;7652;53.584;9.998;2023-06-26T01:16:41;21.90;99.90
15103;DHT22;7652;53.584;9.998;2023-06-26T01:20:08;21.90;99.90
15103;DHT22;7652;53.584;9.998;2023-06-26T01:23:35;21.90;99.90
15103;DHT22;7652;53.584;9.998;2023-06-26T01:27:01;21.90;99.90
15103;DHT22;7652;53.584;9.998;2023-06-26T01:30:24;21.80;99.90
15103;DHT22;7652;53.584;9.998;2023-06-26T01:33:46;21.80;99.90
15103;DHT22;7652;53.584;9.998;2023-06-26T01:37:08;21.80;99.90
15103;DHT22;7652;53.584;9.998;2023-06-26T01:40:29;21.80;99.90
15103;DHT22;7652;53.584;9.998;2023-06-26T01:44:23;21.70;99.90
15103;DHT22;7652;53.584;9.998;2023-06-26T01:47:50;21.70;99.90
15103;DHT22;7652;53.584;9.998;2023-06-26T01:51:14;21.70;99.90
15103;DHT22;7652;53.584;9.998;2023-06-26T01:54:42;21.70;99.90
15103;DHT22;7652;53.584;9.998;2023-06-26T01:58:06;21.60;99.90
15103;DHT22;7652;53.584;9.998;2023-06-26T02:01:30;21.60;99.90
15103;DHT22;7652;53.584;9.998;2023-06-26T02:04:53;21.60;99.90
15103;DHT22;7652;53.584;9.998;2023-06-26T02:08:15;21.50;99.90
15103;DHT22;7652;53.584;9.998;2023-06-26T02:11:36;21.50;99.90
15103;DHT22;7652;53.584;9.998;2023-06-26T02:14:58;21.40;99.90
15103;DHT22;7652;53.584;9.998;2023-06-26T02:18:21;21.40;99.90
15103;DHT22;7652;53.584;9.998;2023-06-26T02:21:42;21.40;99.90
15103;DHT22;7652;53.584;9.998;2023-06-26T02:25:04;21.40;99.90
15103;DHT22;7652;53.584;9.998;2023-06-26T02:28:26;21.40;99.90
15103;DHT22;7652;53.584;9.998;2023-06-26T02:31:48;21.40;99.90
15103;DHT22;7652;53.584;9.998;2023-06-26T02:35:10;21.30;99.90
15103;DHT22;7652;53.584;9.998;2023-06-26T02:38:32;21.30;99.90
15103;DHT22;7652;53.584;9.998;2023-06-26T02:41:53;21.30;99.90
15103;DHT22;7652;53.584;9.998;2023-06-26T02:45:14;21.30;99.90
15103;DHT22;7652;53.584;9.998;2023-06-26T02:48:35;21.20;99.90
15103;DHT22;7652;53.584;9.998;2023-06-26T02:51:58;21.20;99.90
15103;DHT22;7652;53.584;9.998;2023-06-26T02:55:20;21.20;99.90
15103;DHT22;7652;53.584;9.998;2023-06-26T02:58:42;21.20;99.90
15103;DHT22;7652;53.584;9.998;2023-06-26T03:02:04;21.20;99.90
15103;DHT22;7652;53.584;9.998;2023-06-26T03:05:26;21.20;99.90
15103;DHT22;7652;53.584;9.998;2023-06-26T03:08:49;21.20;99.90
15103;DHT22;7652;53.584;9.998;2023-06-26T03:12:10;21.10;99.90
15103;DHT22;7652;53.584;9.998;2023-06-26T03:15:32;21.10;99.90
15103;DHT22;7652;53.584;9.998;2023-06-26T03:18:53;21.10;99.90
15103;DHT22;7652;53.584;9.998;2023-06-26T03:22:14;21.20;99.90
15103;DHT22;7652;53.584;9.998;2023-06-26T03:25:37;21.20;99.90
15103;DHT22;7652;53.584;9.998;2023-06-26T03:28:58;21.20;99.90
15103;DHT22;7652;53.584;9.998;2023-06-26T03:32:20;21.20;99.90
15103;DHT22;7652;53.584;9.998;2023-06-26T03:35:41;21.20;99.90
15103;DHT22;7652;53.584;9.998;2023-06-26T03:39:03;21.20;99.90
15103;DHT22;7652;53.584;9.998;2023-06-26T03:42:25;21.20;99.90
15103;DHT22;7652;53.584;9.998;2023-06-26T03:45:47;21.20;99.90
15103;DHT22;7652;53.584;9.998;2023-06-26T03:49:09;21.20;99.90
15103;DHT22;7652;53.584;9.998;2023-06-26T03:52:31;21.20;99.90
15103;DHT22;7652;53.584;9.998;2023-06-26T03:55:52;21.20;99.90
15103;DHT22;7652;53.584;9.998;2023-06-26T03:59:15;21.20;99.90
15103;DHT22;7652;53.584;9.998;2023-06-26T04:02:36;21.30;99.90
15103;DHT22;7652;53.584;9.998;2023-06-26T04:05:59;21.30;99.90
15103;DHT22;7652;53.584;9.998;2023-06-26T04:09:20;21.30;99.90
15103;DHT22;7652;53.584;9.998;2023-06-26T04:12:41;21.30;99.90
15103;DHT22;7652;53.584;9.998;2023-06-26T04:16:04;21.30;99.90
15103;DHT22;7652;53.584;9.998;2023-06-26T04:19:26;21.30;99.90
15103;DHT22;7652;53.584;9.998;2023-06-26T04:22:48;21.40;99.90
15103;DHT22;7652;53.584;9.998;2023-06-26T04:26:09;21.30;99.90
15103;DHT22;7652;53.584;9.998;2023-06-26T04:29:33;21.40;99.90
15103;DHT22;7652;53.584;9.998;2023-06-26T04:32:56;21.40;99.90
15103;DHT22;7652;53.584;9.998;2023-06-26T04:36:19;21.40;99.90
15103;DHT22;7652;53.584;9.998;2023-06-26T04:39:40;21.40;99.90
15103;DHT22;7652;53.584;9.998;2023-06-26T04:43:03;21.50;99.90
15103;DHT22;7652;53.584;9.998;2023-06-26T04:46:24;21.50;99.90
15103;DHT22;7652;53.584;9.998;2023-06-26T04:49:49;21.60;99.90
15103;DHT22;7652;53.584;9.998;2023-06-26T04:53:11;21.60;99.90
15103;DHT22;7652;53.584;9.998;2023-06-26T04:56:32;21.60;99.90
15103;DHT22;7652;53.584;9.998;2023-06-26T04:59:53;21.70;99.90
15103;DHT22;7652;53.584;9.998;2023-06-26T05:03:16;21.70;99.90
15103;DHT22;7652;53.584;9.998;2023-06-26T05:06:39;21.80;99.90
15103;DHT22;7652;53.584;9.998;2023-06-26T05:10:01;21.90;99.90
15103;DHT22;7652;53.584;9.998;2023-06-26T05:13:22;21.90;99.90
15103;DHT22;7652;53.584;9.998;2023-06-26T05:16:44;22.00;99.90
15103;DHT22;7652;53.584;9.998;2023-06-26T05:20:06;22.10;99.90
15103;DHT22;7652;53.584;9.998;2023-06-26T05:23:32;22.10;99.90
15103;DHT22;7652;53.584;9.998;2023-06-26T05:26:54;22.20;99.90
15103;DHT22;7652;53.584;9.998;2023-06-26T05:30:16;22.20;99.90
15103;DHT22;7652;53.584;9.998;2023-06-26T05:33:39;22.40;99.90
15103;DHT22;7652;53.584;9.998;2023-06-26T05:37:04;22.50;99.90
15103;DHT22;7652;53.584;9.998;2023-06-26T05:40:27;22.70;99.90
15103;DHT22;7652;53.584;9.998;2023-06-26T05:43:49;22.90;99.90
15103;DHT22;7652;53.584;9.998;2023-06-26T05:47:11;23.20;99.90
15103;DHT22;7652;53.584;9.998;2023-06-26T05:50:33;23.60;99.90
15103;DHT22;7652;53.584;9.998;2023-06-26T05:53:56;24.00;99.90
15103;DHT22;7652;53.584;9.998;2023-06-26T05:57:20;24.40;99.90
15103;DHT22;7652;53.584;9.998;2023-06-26T06:00:42;24.80;99.90
15103;DHT22;7652;53.584;9.998;2023-06-26T06:04:03;25.00;99.90
15103;DHT22;7652;53.584;9.998;2023-06-26T06:07:25;25.30;99.90
15103;DHT22;7652;53.584;9.998;2023-06-26T06:10:47;25.60;99.90
15103;DHT22;7652;53.584;9.998;2023-06-26T06:14:09;25.90;99.90
15103;DHT22;7652;53.584;9.998;2023-06-26T06:17:31;26.10;99.90
15103;DHT22;7652;53.584;9.998;2023-06-26T06:20:52;26.40;99.90
15103;DHT22;7652;53.584;9.998;2023-06-26T06:24:14;26.80;99.90
15103;DHT22;7652;53.584;9.998;2023-06-26T06:27:35;27.10;99.90
15103;DHT22;7652;53.584;9.998;2023-06-26T06:30:58;27.40;99.90
15103;DHT22;7652;53.584;9.998;2023-06-26T06:34:19;27.70;99.90
15103;DHT22;7652;53.584;9.998;2023-06-26T06:37:41;28.20;99.90
15103;DHT22;7652;53.584;9.998;2023-06-26T06:41:02;28.50;99.90
15103;DHT22;7652;53.584;9.998;2023-06-26T06:44:24;28.30;99.90
15103;DHT22;7652;53.584;9.998;2023-06-26T06:47:47;28.50;99.90
15103;DHT22;7652;53.584;9.998;2023-06-26T06:51:09;28.70;99.90
15103;DHT22;7652;53.584;9.998;2023-06-26T06:54:30;28.80;99.90
15103;DHT22;7652;53.584;9.998;2023-06-26T06:57:52;29.10;99.90
15103;DHT22;7652;53.584;9.998;2023-06-26T07:01:13;29.40;99.90
15103;DHT22;7652;53.584;9.998;2023-06-26T07:04:36;28.90;99.90
15103;DHT22;7652;53.584;9.998;2023-06-26T07:07:58;28.30;99.90
15103;DHT22;7652;53.584;9.998;2023-06-26T07:11:22;27.70;99.90
15103;DHT22;7652;53.584;9.998;2023-06-26T07:14:43;27.20;99.90
15103;DHT22;7652;53.584;9.998;2023-06-26T07:18:05;26.90;99.90
15103;DHT22;7652;53.584;9.998;2023-06-26T07:21:28;26.70;99.90
15103;DHT22;7652;53.584;9.998;2023-06-26T07:24:49;26.60;99.90
15103;DHT22;7652;53.584;9.998;2023-06-26T07:28:11;26.60;99.90
15103;DHT22;7652;53.584;9.998;2023-06-26T07:31:33;26.60;99.90
15103;DHT22;7652;53.584;9.998;2023-06-26T07:34:55;26.50;99.90
15103;DHT22;7652;53.584;9.998;2023-06-26T07:38:18;26.60;99.90
15103;DHT22;7652;53.584;9.998;2023-06-26T07:41:39;26.70;99.90
15103;DHT22;7652;53.584;9.998;2023-06-26T07:45:01;26.60;99.90
15103;DHT22;7652;53.584;9.998;2023-06-26T07:48:30;26.70;99.90
15103;DHT22;7652;53.584;9.998;2023-06-26T07:51:51;26.80;99.90
15103;DHT22;7652;53.584;9.998;2023-06-26T07:55:14;26.90;99.90
15103;DHT22;7652;53.584;9.998;2023-06-26T07:58:36;27.10;99.90
15103;DHT22;7652;53.584;9.998;2023-06-26T08:01:59;27.40;99.90
15103;DHT22;7652;53.584;9.998;2023-06-26T08:05:21;27.60;99.90
15103;DHT22;7652;53.584;9.998;2023-06-26T08:08:43;27.50;99.90
15103;DHT22;7652;53.584;9.998;2023-06-26T08:12:06;27.50;99.90
15103;DHT22;7652;53.584;9.998;2023-06-26T08:15:31;27.50;99.90
15103;DHT22;7652;53.584;9.998;2023-06-26T08:18:52;27.50;99.90
15103;DHT22;7652;53.584;9.998;2023-06-26T08:22:13;27.60;99.90
15103;DHT22;7652;53.584;9.998;2023-06-26T08:25:34;27.70;99.90
15103;DHT22;7652;53.584;9.998;2023-06-26T08:28:57;27.80;99.90
15103;DHT22;7652;53.584;9.998;2023-06-26T08:32:19;27.90;99.90
15103;DHT22;7652;53.584;9.998;2023-06-26T08:35:40;27.90;99.90
15103;DHT22;7652;53.584;9.998;2023-06-26T08:39:03;28.00;99.90
15103;DHT22;7652;53.584;9.998;2023-06-26T08:42:25;28.20;99.90
15103;DHT22;7652;53.584;9.998;2023-06-26T08:45:48;28.30;99.90
15103;DHT22;7652;53.584;9.998;2023-06-26T08:49:16;28.40;99.90
15103;DHT22;7652;53.584;9.998;2023-06-26T08:52:43;28.40;99.90
15103;DHT22;7652;53.584;9.998;2023-06-26T08:56:07;28.20;99.90
15103;DHT22;7652;53.584;9.998;2023-06-26T08:59:29;28.10;99.90
15103;DHT22;7652;53.584;9.998;2023-06-26T09:02:52;28.10;99.90
15103;DHT22;7652;53.584;9.998;2023-06-26T09:06:14;28.20;99.90
15103;DHT22;7652;53.584;9.998;2023-06-26T09:09:35;28.20;99.90
15103;DHT22;7652;53.584;9.998;2023-06-26T09:12:57;28.20;99.90
15103;DHT22;7652;53.584;9.998;2023-06-26T09:16:24;28.30;99.90
15103;DHT22;7652;53.584;9.998;2023-06-26T09:19:48;28.30;99.90
15103;DHT22;7652;53.584;9.998;2023-06-26T09:23:10;28.40;99.90
15103;DHT22;7652;53.584;9.998;2023-06-26T09:26:32;28.50;99.90
15103;DHT22;7652;53.584;9.998;2023-06-26T09:29:53;28.50;99.90
15103;DHT22;7652;53.584;9.998;2023-06-26T09:33:17;28.50;99.90
15103;DHT22;7652;53.584;9.998;2023-06-26T09:36:40;28.50;99.90
15103;DHT22;7652;53.584;9.998;2023-06-26T09:40:07;28.20;99.90
15103;DHT22;7652;53.584;9.998;2023-06-26T09:43:29;27.90;99.90
15103;DHT22;7652;53.584;9.998;2023-06-26T09:46:51;27.70;99.90
15103;DHT22;7652;53.584;9.998;2023-06-26T09:50:23;27.40;99.90
15103;DHT22;7652;53.584;9.998;2023-06-26T09:53:48;27.10;99.90
15103;DHT22;7652;53.584;9.998;2023-06-26T09:57:12;26.90;99.90
15103;DHT22;7652;53.584;9.998;2023-06-26T10:00:34;26.80;99.90
15103;DHT22;7652;53.584;9.998;2023-06-26T10:03:56;26.80;99.90
15103;DHT22;7652;53.584;9.998;2023-06-26T10:07:18;26.60;99.90
15103;DHT22;7652;53.584;9.998;2023-06-26T10:10:42;26.20;99.90
15103;DHT22;7652;53.584;9.998;2023-06-26T10:14:06;25.90;99.90
15103;DHT22;7652;53.584;9.998;2023-06-26T10:17:38;25.60;99.90
15103;DHT22;7652;53.584;9.998;2023-06-26T10:21:01;25.30;99.90
15103;DHT22;7652;53.584;9.998;2023-06-26T10:24:24;25.10;99.90
15103;DHT22;7652;53.584;9.998;2023-06-26T10:27:51;24.90;99.90
15103;DHT22;7652;53.584;9.998;2023-06-26T10:31:14;24.50;99.90
15103;DHT22;7652;53.584;9.998;2023-06-26T10:34:35;23.90;99.90
15103;DHT22;7652;53.584;9.998;2023-06-26T10:38:01;23.30;99.90
15103;DHT22;7652;53.584;9.998;2023-06-26T10:41:25;22.80;99.90
15103;DHT22;7652;53.584;9.998;2023-06-26T10:44:48;22.20;99.90
15103;DHT22;7652;53.584;9.998;2023-06-26T10:48:12;21.80;99.90
15103;DHT22;7652;53.584;9.998;2023-06-26T10:51:34;21.60;99.90
15103;DHT22;7652;53.584;9.998;2023-06-26T10:54:55;21.60;99.90
15103;DHT22;7652;53.584;9.998;2023-06-26T10:58:32;21.60;99.90
15103;DHT22;7652;53.584;9.998;2023-06-26T11:01:57;21.70;99.90
15103;DHT22;7652;53.584;9.998;2023-06-26T11:05:26;21.70;99.90
15103;DHT22;7652;53.584;9.998;2023-06-26T11:08:49;21.90;99.90
15103;DHT22;7652;53.584;9.998;2023-06-26T11:12:11;22.20;99.90
15103;DHT22;7652;53.584;9.998;2023-06-26T11:15:33;22.50;99.90
15103;DHT22;7652;53.584;9.998;2023-06-26T11:18:58;22.50;99.90
15103;DHT22;7652;53.584;9.998;2023-06-26T11:22:19;22.70;99.90
15103;DHT22;7652;53.584;9.998;2023-06-26T11:25:41;22.70;99.90
15103;DHT22;7652;53.584;9.998;2023-06-26T11:29:04;22.70;99.90
15103;DHT22;7652;53.584;9.998;2023-06-26T11:32:27;23.00;99.90
15103;DHT22;7652;53.584;9.998;2023-06-26T11:35:50;23.10;99.90
15103;DHT22;7652;53.584;9.998;2023-06-26T11:39:12;23.20;99.90
15103;DHT22;7652;53.584;9.998;2023-06-26T11:42:33;23.30;99.90
15103;DHT22;7652;53.584;9.998;2023-06-26T11:45:55;23.20;99.90
15103;DHT22;7652;53.584;9.998;2023-06-26T11:49:17;23.20;99.90
15103;DHT22;7652;53.584;9.998;2023-06-26T11:52:41;23.30;99.90
15103;DHT22;7652;53.584;9.998;2023-06-26T11:56:08;23.40;99.90
15103;DHT22;7652;53.584;9.998;2023-06-26T11:59:34;23.60;99.90
15103;DHT22;7652;53.584;9.998;2023-06-26T12:02:56;23.80;99.90
15103;DHT22;7652;53.584;9.998;2023-06-26T12:06:19;23.70;99.90
15103;DHT22;7652;53.584;9.998;2023-06-26T12:09:43;23.40;99.90
15103;DHT22;7652;53.584;9.998;2023-06-26T12:13:05;23.30;99.90
15103;DHT22;7652;53.584;9.998;2023-06-26T12:16:29;23.10;99.90
15103;DHT22;7652;53.584;9.998;2023-06-26T12:19:51;23.10;99.90
15103;DHT22;7652;53.584;9.998;2023-06-26T12:23:13;23.40;99.90
15103;DHT22;7652;53.584;9.998;2023-06-26T12:26:36;23.90;99.90
15103;DHT22;7652;53.584;9.998;2023-06-26T12:29:57;24.70;99.90
15103;DHT22;7652;53.584;9.998;2023-06-26T12:33:19;25.50;99.90
15103;DHT22;7652;53.584;9.998;2023-06-26T12:36:40;26.30;99.90
15103;DHT22;7652;53.584;9.998;2023-06-26T12:40:02;26.80;99.90
15103;DHT22;7652;53.584;9.998;2023-06-26T12:43:27;26.50;99.90
15103;DHT22;7652;53.584;9.998;2023-06-26T12:46:49;26.60;99.90
15103;DHT22;7652;53.584;9.998;2023-06-26T12:50:12;27.20;99.90
15103;DHT22;7652;53.584;9.998;2023-06-26T12:53:33;27.60;99.90
15103;DHT22;7652;53.584;9.998;2023-06-26T12:56:56;27.60;99.90
15103;DHT22;7652;53.584;9.998;2023-06-26T13:00:19;27.60;99.90
15103;DHT22;7652;53.584;9.998;2023-06-26T13:03:41;27.90;99.90
15103;DHT22;7652;53.584;9.998;2023-06-26T13:07:03;27.70;99.90
15103;DHT22;7652;53.584;9.998;2023-06-26T13:10:25;27.70;99.90
15103;DHT22;7652;53.584;9.998;2023-06-26T13:13:49;27.70;99.90
15103;DHT22;7652;53.584;9.998;2023-06-26T13:17:29;27.40;99.90
15103;DHT22;7652;53.584;9.998;2023-06-26T13:20:51;27.30;99.90
15103;DHT22;7652;53.584;9.998;2023-06-26T13:24:13;27.00;99.90
15103;DHT22;7652;53.584;9.998;2023-06-26T13:27:35;26.70;99.90
15103;DHT22;7652;53.584;9.998;2023-06-26T13:30:56;26.10;99.90
15103;DHT22;7652;53.584;9.998;2023-06-26T13:34:23;25.70;99.90
15103;DHT22;7652;53.584;9.998;2023-06-26T13:37:48;25.60;99.90
15103;DHT22;7652;53.584;9.998;2023-06-26T13:41:09;25.50;99.90
15103;DHT22;7652;53.584;9.998;2023-06-26T13:44:31;25.50;99.90
15103;DHT22;7652;53.584;9.998;2023-06-26T13:48:11;25.40;99.90
15103;DHT22;7652;53.584;9.998;2023-06-26T13:51:34;25.30;99.90
15103;DHT22;7652;53.584;9.998;2023-06-26T13:54:55;25.10;99.90
15103;DHT22;7652;53.584;9.998;2023-06-26T13:58:17;24.80;99.90
15103;DHT22;7652;53.584;9.998;2023-06-26T14:01:42;24.80;99.90
15103;DHT22;7652;53.584;9.998;2023-06-26T14:05:05;24.70;99.90
15103;DHT22;7652;53.584;9.998;2023-06-26T14:08:27;24.60;99.90
15103;DHT22;7652;53.584;9.998;2023-06-26T14:11:49;24.60;99.90
15103;DHT22;7652;53.584;9.998;2023-06-26T14:15:10;24.70;99.90
15103;DHT22;7652;53.584;9.998;2023-06-26T14:18:32;24.70;99.90
15103;DHT22;7652;53.584;9.998;2023-06-26T14:21:55;24.60;99.90
15103;DHT22;7652;53.584;9.998;2023-06-26T14:25:18;24.50;99.90
15103;DHT22;7652;53.584;9.998;2023-06-26T14:28:39;24.20;99.90
15103;DHT22;7652;53.584;9.998;2023-06-26T14:32:00;24.20;99.90
15103;DHT22;7652;53.584;9.998;2023-06-26T14:35:22;24.40;99.90
15103;DHT22;7652;53.584;9.998;2023-06-26T14:38:44;24.50;99.90
15103;DHT22;7652;53.584;9.998;2023-06-26T14:42:07;24.30;99.90
15103;DHT22;7652;53.584;9.998;2023-06-26T14:45:29;24.30;99.90
15103;DHT22;7652;53.584;9.998;2023-06-26T14:48:51;24.30;99.90
15103;DHT22;7652;53.584;9.998;2023-06-26T14:52:13;24.20;99.90
15103;DHT22;7652;53.584;9.998;2023-06-26T14:55:34;24.20;99.90
15103;DHT22;7652;53.584;9.998;2023-06-26T14:58:57;24.20;99.90
15103;DHT22;7652;53.584;9.998;2023-06-26T15:02:19;24.20;99.90
15103;DHT22;7652;53.584;9.998;2023-06-26T15:05:40;24.20;99.90
15103;DHT22;7652;53.584;9.998;2023-06-26T15:09:02;24.10;99.90
15103;DHT22;7652;53.584;9.998;2023-06-26T15:12:23;23.90;99.90
15103;DHT22;7652;53.584;9.998;2023-06-26T15:15:46;23.90;99.90
15103;DHT22;7652;53.584;9.998;2023-06-26T15:19:07;23.80;99.90
15103;DHT22;7652;53.584;9.998;2023-06-26T15:22:29;23.80;99.90
15103;DHT22;7652;53.584;9.998;2023-06-26T15:25:51;23.80;99.90
15103;DHT22;7652;53.584;9.998;2023-06-26T15:29:12;23.80;99.90
15103;DHT22;7652;53.584;9.998;2023-06-26T15:32:36;23.50;99.90
15103;DHT22;7652;53.584;9.998;2023-06-26T15:35:58;23.40;99.90
15103;DHT22;7652;53.584;9.998;2023-06-26T15:39:19;23.20;99.90
15103;DHT22;7652;53.584;9.998;2023-06-26T15:42:47;23.20;99.90
15103;DHT22;7652;53.584;9.998;2023-06-26T15:46:09;23.20;99.90
15103;DHT22;7652;53.584;9.998;2023-06-26T15:49:32;23.10;99.90
15103;DHT22;7652;53.584;9.998;2023-06-26T15:52:53;23.10;99.90
15103;DHT22;7652;53.584;9.998;2023-06-26T15:56:15;23.10;99.90
15103;DHT22;7652;53.584;9.998;2023-06-26T15:59:38;22.90;99.90
15103;DHT22;7652;53.584;9.998;2023-06-26T16:02:59;22.90;99.90
15103;DHT22;7652;53.584;9.998;2023-06-26T16:06:22;22.90;99.90
15103;DHT22;7652;53.584;9.998;2023-06-26T16:09:44;22.80;99.90
15103;DHT22;7652;53.584;9.998;2023-06-26T16:13:05;22.80;99.90
15103;DHT22;7652;53.584;9.998;2023-06-26T16:16:26;22.90;99.90
15103;DHT22;7652;53.584;9.998;2023-06-26T16:19:47;22.80;99.90
15103;DHT22;7652;53.584;9.998;2023-06-26T16:23:10;22.80;99.90
15103;DHT22;7652;53.584;9.998;2023-06-26T16:26:33;22.90;99.90
15103;DHT22;7652;53.584;9.998;2023-06-26T16:29:55;22.90;99.90
15103;DHT22;7652;53.584;9.998;2023-06-26T16:33:17;22.90;99.90
15103;DHT22;7652;53.584;9.998;2023-06-26T16:36:39;22.60;99.90
15103;DHT22;7652;53.584;9.998;2023-06-26T16:40:03;22.50;99.90
15103;DHT22;7652;53.584;9.998;2023-06-26T16:43:24;22.50;99.90
15103;DHT22;7652;53.584;9.998;2023-06-26T16:46:46;22.40;99.90
15103;DHT22;7652;53.584;9.998;2023-06-26T16:50:08;22.30;99.90
15103;DHT22;7652;53.584;9.998;2023-06-26T16:53:29;22.30;99.90
15103;DHT22;7652;53.584;9.998;2023-06-26T16:56:53;22.30;99.90
15103;DHT22;7652;53.584;9.998;2023-06-26T17:00:15;22.10;99.90
15103;DHT22;7652;53.584;9.998;2023-06-26T17:03:36;22.10;99.90
15103;DHT22;7652;53.584;9.998;2023-06-26T17:06:58;21.90;99.90
15103;DHT22;7652;53.584;9.998;2023-06-26T17:10:20;21.90;99.90
15103;DHT22;7652;53.584;9.998;2023-06-26T17:13:43;21.70;99.90
15103;DHT22;7652;53.584;9.998;2023-06-26T17:17:04;21.70;99.90
15103;DHT22;7652;53.584;9.998;2023-06-26T17:20:26;21.80;99.90
15103;DHT22;7652;53.584;9.998;2023-06-26T17:23:48;21.90;99.90
15103;DHT22;7652;53.584;9.998;2023-06-26T17:27:10;21.90;99.90
15103;DHT22;7652;53.584;9.998;2023-06-26T17:30:33;22.00;99.90
15103;DHT22;7652;53.584;9.998;2023-06-26T17:33:56;22.00;99.90
15103;DHT22;7652;53.584;9.998;2023-06-26T17:37:17;21.90;99.90
15103;DHT22;7652;53.584;9.998;2023-06-26T17:40:40;21.70;99.90
15103;DHT22;7652;53.584;9.998;2023-06-26T17:44:02;21.50;99.90
15103;DHT22;7652;53.584;9.998;2023-06-26T17:47:24;21.50;99.90
15103;DHT22;7652;53.584;9.998;2023-06-26T17:50:48;21.30;99.90
15103;DHT22;7652;53.584;9.998;2023-06-26T17:54:10;21.20;99.90
15103;DHT22;7652;53.584;9.998;2023-06-26T17:57:32;21.10;99.90
15103;DHT22;7652;53.584;9.998;2023-06-26T18:00:53;21.10;99.90
15103;DHT22;7652;53.584;9.998;2023-06-26T18:04:17;21.10;99.90
15103;DHT22;7652;53.584;9.998;2023-06-26T18:07:38;21.20;99.90
15103;DHT22;7652;53.584;9.998;2023-06-26T18:11:20;21.20;99.90
15103;DHT22;7652;53.584;9.998;2023-06-26T18:14:41;21.10;99.90
15103;DHT22;7652;53.584;9.998;2023-06-26T18:18:04;21.10;99.90
15103;DHT22;7652;53.584;9.998;2023-06-26T18:21:27;21.10;99.90
15103;DHT22;7652;53.584;9.998;2023-06-26T18:24:48;21.00;99.90
15103;DHT22;7652;53.584;9.998;2023-06-26T18:28:10;20.90;99.90
15103;DHT22;7652;53.584;9.998;2023-06-26T18:31:32;20.90;99.90
15103;DHT22;7652;53.584;9.998;2023-06-26T18:34:54;20.80;99.90
15103;DHT22;7652;53.584;9.998;2023-06-26T18:38:16;20.70;99.90
15103;DHT22;7652;53.584;9.998;2023-06-26T18:41:38;20.70;99.90
15103;DHT22;7652;53.584;9.998;2023-06-26T18:44:59;20.70;99.90
15103;DHT22;7652;53.584;9.998;2023-06-26T18:48:20;20.60;99.90
15103;DHT22;7652;53.584;9.998;2023-06-26T18:51:42;20.50;99.90
15103;DHT22;7652;53.584;9.998;2023-06-26T18:55:05;20.50;99.90
15103;DHT22;7652;53.584;9.998;2023-06-26T18:58:27;20.30;99.90
15103;DHT22;7652;53.584;9.998;2023-06-26T19:01:49;20.20;99.90
15103;DHT22;7652;53.584;9.998;2023-06-26T19:05:10;20.20;99.90
15103;DHT22;7652;53.584;9.998;2023-06-26T19:08:31;20.20;99.90
15103;DHT22;7652;53.584;9.998;2023-06-26T19:11:54;20.10;99.90
15103;DHT22;7652;53.584;9.998;2023-06-26T19:15:16;20.00;99.90
15103;DHT22;7652;53.584;9.998;2023-06-26T19:18:37;19.90;99.90
15103;DHT22;7652;53.584;9.998;2023-06-26T19:21:58;19.80;99.90
15103;DHT22;7652;53.584;9.998;2023-06-26T19:25:20;19.90;99.90
15103;DHT22;7652;53.584;9.998;2023-06-26T19:28:42;19.90;99.90
15103;DHT22;7652;53.584;9.998;2023-06-26T19:32:05;19.70;99.90
15103;DHT22;7652;53.584;9.998;2023-06-26T19:35:27;19.60;99.90
15103;DHT22;7652;53.584;9.998;2023-06-26T19:38:48;19.50;99.90
15103;DHT22;7652;53.584;9.998;2023-06-26T19:42:09;19.50;99.90
15103;DHT22;7652;53.584;9.998;2023-06-26T19:45:32;19.60;99.90
15103;DHT22;7652;53.584;9.998;2023-06-26T19:48:54;19.50;99.90
15103;DHT22;7652;53.584;9.998;2023-06-26T19:52:16;19.40;99.90
15103;DHT22;7652;53.584;9.998;2023-06-26T19:55:38;19.30;99.90
15103;DHT22;7652;53.584;9.998;2023-06-26T19:59:00;19.30;99.90
15103;DHT22;7652;53.584;9.998;2023-06-26T20:02:24;19.30;99.90
15103;DHT22;7652;53.584;9.998;2023-06-26T20:05:46;19.30;99.90
15103;DHT22;7652;53.584;9.998;2023-06-26T20:09:07;19.30;99.90
15103;DHT22;7652;53.584;9.998;2023-06-26T20:12:28;19.30;99.90
15103;DHT22;7652;53.584;9.998;2023-06-26T20:15:50;19.20;99.90
15103;DHT22;7652;53.584;9.998;2023-06-26T20:19:13;19.10;99.90
15103;DHT22;7652;53.584;9.998;2023-06-26T20:22:35;19.10;99.90
15103;DHT22;7652;53.584;9.998;2023-06-26T20:25:56;19.00;99.90
15103;DHT22;7652;53.584;9.998;2023-06-26T20:29:18;18.90;99.90
15103;DHT22;7652;53.584;9.998;2023-06-26T20:32:39;19.00;99.90
15103;DHT22;7652;53.584;9.998;2023-06-26T20:36:03;18.90;99.90
15103;DHT22;7652;53.584;9.998;2023-06-26T20:39:24;18.90;99.90
15103;DHT22;7652;53.584;9.998;2023-06-26T20:42:48;18.80;99.90
15103;DHT22;7652;53.584;9.998;2023-06-26T20:46:10;18.80;99.90
15103;DHT22;7652;53.584;9.998;2023-06-26T20:49:34;18.80;99.90
15103;DHT22;7652;53.584;9.998;2023-06-26T20:52:59;18.70;99.90
15103;DHT22;7652;53.584;9.998;2023-06-26T20:56:21;18.70;99.90
15103;DHT22;7652;53.584;9.998;2023-06-26T20:59:43;18.70;99.90
15103;DHT22;7652;53.584;9.998;2023-06-26T21:03:04;18.70;99.90
15103;DHT22;7652;53.584;9.998;2023-06-26T21:06:26;18.70;99.90
15103;DHT22;7652;53.584;9.998;2023-06-26T21:09:49;18.60;99.90
15103;DHT22;7652;53.584;9.998;2023-06-26T21:13:13;18.70;99.90
15103;DHT22;7652;53.584;9.998;2023-06-26T21:16:34;18.70;99.90
15103;DHT22;7652;53.584;9.998;2023-06-26T21:19:57;18.60;99.90
15103;DHT22;7652;53.584;9.998;2023-06-26T21:23:19;18.60;99.90
15103;DHT22;7652;53.584;9.998;2023-06-26T21:26:41;18.60;99.90
15103;DHT22;7652;53.584;9.998;2023-06-26T21:30:04;18.50;99.90
15103;DHT22;7652;53.584;9.998;2023-06-26T21:33:28;18.40;99.90
15103;DHT22;7652;53.584;9.998;2023-06-26T21:36:50;18.30;99.90
15103;DHT22;7652;53.584;9.998;2023-06-26T21:40:14;18.40;99.90